Time;durP1;ratioP1;P1;durP2;ratioP2;P2;SDS_P1;SDS_P2;PMS_P1;PMS_P2;Temp;Humidity;BMP_temperature;BMP_pressure;BME280_temperature;BME280_humidity;BME280_pressure;Samples;Min_cycle;Max_cycle;Signal;HPM_P1;HPM_P2
2022/05/05 00:00:47;;;;;;;13.00;10.57;;;25.70;99.90;;;;;;4149961;28;20102;-68
2022/05/05 00:02:57;;;;;;;19.25;10.57;;;25.70;99.90;;;;;;4155781;28;20045;-69
2022/05/05 00:05:02;;;;;;;12.82;11.13;;;25.70;99.90;;;;;;4152760;28;20504;-69
2022/05/05 00:07:07;;;;;;;14.05;10.80;;;25.60;99.90;;;;;;4152639;28;20058;-69
2022/05/05 00:09:13;;;;;;;14.93;10.93;;;25.70;99.90;;;;;;4148927;28;20124;-69
2022/05/05 00:15:51;;;;;;;15.25;11.43;;;25.90;99.90;;;;;;4147568;28;20049;-70
2022/05/05 00:17:56;;;;;;;14.02;11.23;;;26.00;99.90;;;;;;4149645;28;20571;-70
2022/05/05 00:20:02;;;;;;;14.73;11.57;;;26.00;99.90;;;;;;4149896;28;20057;-68
2022/05/05 00:22:09;;;;;;;14.32;11.35;;;26.00;99.90;;;;;;4151022;28;20050;-69
2022/05/05 00:24:16;;;;;;;13.38;10.40;;;26.00;99.90;;;;;;4151540;28;20598;-69
2022/05/05 00:26:22;;;;;;;16.20;11.43;;;26.10;99.90;;;;;;4150501;28;20049;-71
2022/05/05 00:28:27;;;;;;;16.25;10.48;;;26.20;99.90;;;;;;4151438;28;20054;-69
2022/05/05 00:30:32;;;;;;;14.38;11.43;;;26.40;99.90;;;;;;4155052;28;20119;-70
2022/05/05 00:32:38;;;;;;;16.33;11.32;;;26.40;99.90;;;;;;4155938;28;20129;-68
2022/05/05 00:34:44;;;;;;;14.93;10.95;;;26.40;99.70;;;;;;4151594;28;20324;-69
2022/05/05 00:36:49;;;;;;;14.73;10.65;;;26.40;99.60;;;;;;4150238;28;20045;-70
2022/05/05 00:38:54;;;;;;;15.55;10.65;;;26.60;99.50;;;;;;4151839;28;20457;-68
2022/05/05 00:41:02;;;;;;;15.73;9.90;;;26.70;99.30;;;;;;4167609;28;20099;-69
2022/05/05 00:43:06;;;;;;;12.50;9.75;;;26.80;98.70;;;;;;4149156;28;20056;-69
2022/05/05 00:45:11;;;;;;;13.10;9.13;;;26.90;98.60;;;;;;4150839;28;20109;-69
2022/05/05 00:47:19;;;;;;;12.40;9.60;;;27.10;98.70;;;;;;4149561;28;20067;-70
2022/05/05 00:49:23;;;;;;;13.85;9.77;;;27.10;98.60;;;;;;4154824;28;20783;-70
2022/05/05 00:51:30;;;;;;;16.80;10.50;;;27.20;98.80;;;;;;4149555;28;20057;-70
2022/05/05 00:53:36;;;;;;;14.00;10.10;;;27.20;97.90;;;;;;4153837;28;20073;-69
2022/05/05 00:55:41;;;;;;;11.68;10.48;;;27.20;98.20;;;;;;4151184;28;20092;-69
2022/05/05 00:57:47;;;;;;;15.80;10.93;;;27.30;98.30;;;;;;4165976;28;20060;-70
2022/05/05 00:59:53;;;;;;;11.48;9.32;;;27.30;98.40;;;;;;4155079;28;20045;-69
2022/05/05 01:02:00;;;;;;;13.40;10.40;;;27.30;97.20;;;;;;4156188;28;20069;-69
2022/05/05 01:04:10;;;;;;;12.23;9.75;;;27.30;98.00;;;;;;4150026;28;20042;-70
2022/05/05 01:06:16;;;;;;;15.27;10.15;;;27.30;96.90;;;;;;4152291;28;20053;-70
2022/05/05 01:08:22;;;;;;;11.60;9.63;;;27.20;97.10;;;;;;4150178;28;20052;-69
2022/05/05 01:10:26;;;;;;;13.13;9.27;;;27.20;96.70;;;;;;4154593;28;20080;-69
2022/05/05 01:12:33;;;;;;;14.43;9.75;;;27.20;97.00;;;;;;4150968;28;20088;-70
2022/05/05 01:14:38;;;;;;;13.07;9.15;;;27.20;95.50;;;;;;4154841;28;20760;-69
2022/05/05 01:16:44;;;;;;;12.32;9.05;;;27.10;95.30;;;;;;4151835;28;20046;-70
2022/05/05 01:18:55;;;;;;;12.95;8.85;;;27.10;95.50;;;;;;4151588;28;20042;-69
2022/05/05 01:21:00;;;;;;;11.93;8.98;;;27.20;95.60;;;;;;4148775;28;20057;-68
2022/05/05 01:23:05;;;;;;;10.63;9.20;;;27.40;95.40;;;;;;4155275;28;20045;-69
2022/05/05 01:29:44;;;;;;;11.57;9.00;;;27.70;95.20;;;;;;4150629;28;20046;-69
2022/05/05 01:31:50;;;;;;;11.52;7.80;;;27.60;94.50;;;;;;4148021;28;20049;-69
2022/05/05 01:33:55;;;;;;;9.18;7.68;;;27.60;92.40;;;;;;4150824;28;20060;-69
2022/05/05 01:36:01;;;;;;;11.70;8.05;;;27.70;92.40;;;;;;4152918;28;20097;-69
2022/05/05 01:38:09;;;;;;;11.20;8.10;;;27.70;91.70;;;;;;4150025;28;20041;-68
2022/05/05 01:40:14;;;;;;;12.00;8.32;;;27.80;91.80;;;;;;4153816;28;20038;-68
2022/05/05 01:42:20;;;;;;;12.95;8.90;;;27.80;91.60;;;;;;4151848;28;20072;-68
2022/05/05 01:44:26;;;;;;;12.98;8.57;;;27.80;92.80;;;;;;4150514;28;20461;-67
2022/05/05 01:46:31;;;;;;;10.90;8.23;;;27.80;92.80;;;;;;4149835;28;20137;-68
2022/05/05 01:48:38;;;;;;;9.93;7.60;;;27.70;91.80;;;;;;4153161;28;20136;-68
2022/05/05 01:50:44;;;;;;;13.13;8.05;;;27.70;91.30;;;;;;4152179;28;20045;-69
2022/05/05 01:52:49;;;;;;;12.88;8.80;;;27.70;91.30;;;;;;4150994;28;20157;-68
2022/05/05 01:54:55;;;;;;;9.65;7.47;;;27.70;91.40;;;;;;4160069;28;20050;-69
2022/05/05 01:57:03;;;;;;;11.07;7.57;;;27.70;90.20;;;;;;4160508;28;20046;-67
2022/05/05 01:59:08;;;;;;;12.00;7.90;;;27.70;89.50;;;;;;4153207;28;20050;-70
2022/05/05 02:01:14;;;;;;;11.23;8.35;;;27.80;90.60;;;;;;4115449;28;20473;-68
2022/05/05 02:03:23;;;;;;;10.90;7.97;;;27.80;90.50;;;;;;4151029;28;20062;-67
2022/05/05 02:05:28;;;;;;;12.60;7.93;;;27.90;90.80;;;;;;4152631;28;20056;-68
2022/05/05 02:07:34;;;;;;;13.13;7.60;;;28.00;91.00;;;;;;4151705;28;20053;-68
2022/05/05 02:09:40;;;;;;;12.48;7.80;;;28.00;91.10;;;;;;4150849;28;20092;-70
2022/05/05 02:11:44;;;;;;;10.90;7.80;;;28.00;90.90;;;;;;4151098;28;20049;-69
2022/05/05 02:13:51;;;;;;;10.15;7.32;;;28.10;89.40;;;;;;4158931;28;20045;-69
2022/05/05 02:15:55;;;;;;;11.20;7.43;;;28.10;90.10;;;;;;4151797;28;20042;-69
2022/05/05 02:18:08;;;;;;;12.38;6.93;;;28.20;85.30;;;;;;4145808;28;20088;-69
2022/05/05 02:20:15;;;;;;;9.30;7.22;;;28.10;85.40;;;;;;4158949;28;20065;-69
2022/05/05 02:22:20;;;;;;;11.65;7.15;;;28.20;85.80;;;;;;4162953;28;20551;-70
2022/05/05 02:24:25;;;;;;;10.45;7.35;;;28.20;86.30;;;;;;4159581;28;20041;-70
2022/05/05 02:26:31;;;;;;;9.45;7.28;;;28.20;86.00;;;;;;4131951;28;20154;-70
2022/05/05 02:28:38;;;;;;;14.85;6.88;;;28.20;87.30;;;;;;4149295;28;20108;-70
2022/05/05 02:30:42;;;;;;;9.75;7.32;;;28.30;88.50;;;;;;4141845;28;20050;-69
2022/05/05 02:32:49;;;;;;;11.98;7.20;;;28.40;88.30;;;;;;4134769;28;20081;-70
2022/05/05 02:34:56;;;;;;;10.68;7.00;;;28.50;88.80;;;;;;4140391;28;20509;-70
2022/05/05 02:39:17;;;;;;;9.75;6.72;;;28.50;87.20;;;;;;4142896;28;20054;-69
2022/05/05 02:41:24;;;;;;;9.80;7.05;;;28.50;86.80;;;;;;4142321;28;20430;-69
2022/05/05 02:43:29;;;;;;;9.00;6.70;;;28.60;86.90;;;;;;4125452;28;20047;-69
2022/05/05 02:45:36;;;;;;;8.63;6.32;;;28.70;85.30;;;;;;4136127;28;20054;-68
2022/05/05 02:47:42;;;;;;;7.85;5.80;;;28.70;83.30;;;;;;4135910;28;20054;-68
2022/05/05 02:49:46;;;;;;;8.55;6.20;;;28.70;82.00;;;;;;4138461;28;20053;-69
2022/05/05 02:51:52;;;;;;;8.65;5.80;;;28.70;80.80;;;;;;4143967;28;20061;-68
2022/05/05 02:56:16;;;;;;;7.88;5.72;;;28.80;81.60;;;;;;4152750;28;20142;-69
2022/05/05 02:58:21;;;;;;;7.85;6.03;;;28.90;81.20;;;;;;4138669;28;20046;-70
2022/05/05 03:00:28;;;;;;;8.05;5.63;;;28.90;81.00;;;;;;4153620;28;20100;-70
2022/05/05 03:02:33;;;;;;;7.07;5.68;;;29.00;80.10;;;;;;4127883;28;20481;-68
2022/05/05 03:04:40;;;;;;;8.73;5.40;;;29.00;77.90;;;;;;4162486;28;20042;-69
2022/05/05 03:06:46;;;;;;;8.32;5.43;;;29.00;77.40;;;;;;4170378;28;20041;-69
2022/05/05 03:08:52;;;;;;;7.53;5.50;;;29.00;76.50;;;;;;4170117;28;20045;-69
2022/05/05 03:10:58;;;;;;;6.75;5.22;;;29.10;78.60;;;;;;4150725;28;20132;-69
2022/05/05 03:13:05;;;;;;;8.27;5.75;;;29.10;77.30;;;;;;4171796;28;20053;-69
2022/05/05 03:15:10;;;;;;;8.25;5.47;;;29.10;77.60;;;;;;4172119;28;20043;-68
2022/05/05 03:17:17;;;;;;;8.80;4.85;;;29.20;77.60;;;;;;4168961;28;20072;-69
2022/05/05 03:19:24;;;;;;;8.20;5.93;;;29.20;78.10;;;;;;4164007;28;20088;-68
2022/05/05 03:21:29;;;;;;;8.00;5.10;;;29.30;78.50;;;;;;4155888;28;20042;-69
2022/05/05 03:23:36;;;;;;;11.65;5.53;;;29.30;77.90;;;;;;4157031;28;20134;-69
2022/05/05 03:25:40;;;;;;;11.68;5.85;;;29.40;78.20;;;;;;4167620;28;20072;-68
2022/05/05 03:27:45;;;;;;;8.18;5.47;;;29.40;76.00;;;;;;4170826;28;20069;-69
2022/05/05 03:29:52;;;;;;;12.40;5.40;;;29.50;75.00;;;;;;4170436;28;20113;-69
2022/05/05 03:31:59;;;;;;;9.70;5.30;;;29.50;75.60;;;;;;4157625;28;20042;-69
2022/05/05 03:34:05;;;;;;;7.63;5.30;;;29.50;75.40;;;;;;4171084;28;20056;-69
2022/05/05 03:36:11;;;;;;;7.80;5.25;;;29.50;74.90;;;;;;4169429;28;20038;-69
2022/05/05 03:38:18;;;;;;;7.60;5.55;;;29.60;75.60;;;;;;4158964;28;20042;-69
2022/05/05 03:40:22;;;;;;;7.97;5.40;;;29.60;75.80;;;;;;4169764;28;20041;-69
2022/05/05 03:42:29;;;;;;;10.55;6.20;;;29.70;76.40;;;;;;4169910;28;20045;-70
2022/05/05 03:44:36;;;;;;;8.35;5.47;;;29.70;74.10;;;;;;4164138;28;20109;-69
2022/05/05 03:46:43;;;;;;;7.95;5.60;;;29.80;76.30;;;;;;4153938;28;20500;-69
2022/05/05 03:48:50;;;;;;;9.10;5.68;;;29.80;74.80;;;;;;4163549;28;20053;-69
2022/05/05 03:50:56;;;;;;;9.68;5.28;;;29.90;76.90;;;;;;4159349;28;20140;-69
2022/05/05 03:53:01;;;;;;;9.38;5.57;;;29.90;74.50;;;;;;4158899;28;20487;-67
2022/05/05 03:55:06;;;;;;;9.05;5.55;;;29.90;74.00;;;;;;4155011;28;20112;-65
2022/05/05 03:57:11;;;;;;;10.60;5.43;;;29.90;74.60;;;;;;4156366;28;20124;-68
2022/05/05 03:59:16;;;;;;;9.13;5.03;;;29.90;74.50;;;;;;4170841;28;20066;-68
2022/05/05 04:01:21;;;;;;;7.88;5.57;;;29.90;74.30;;;;;;4172084;28;20163;-65
2022/05/05 04:03:34;;;;;;;9.20;5.47;;;29.90;73.30;;;;;;4145497;28;20038;-67
2022/05/05 04:05:39;;;;;;;12.35;5.45;;;29.90;73.00;;;;;;4162349;28;20041;-69
2022/05/05 04:07:46;;;;;;;10.55;5.97;;;30.00;73.50;;;;;;4122806;28;20047;-68
2022/05/05 04:09:54;;;;;;;8.50;6.25;;;30.00;74.20;;;;;;4156428;28;20050;-67
2022/05/05 04:12:00;;;;;;;9.10;6.07;;;30.10;74.20;;;;;;4156217;28;20049;-67
2022/05/05 04:14:04;;;;;;;8.90;6.22;;;30.20;72.00;;;;;;4157968;28;20038;-67
2022/05/05 04:16:10;;;;;;;9.45;5.97;;;30.20;71.70;;;;;;4171080;28;20068;-68
2022/05/05 04:18:15;;;;;;;9.32;6.20;;;30.20;73.00;;;;;;4159503;28;20038;-68
2022/05/05 04:20:19;;;;;;;11.05;6.07;;;30.30;73.60;;;;;;4151017;28;20093;-70
2022/05/05 04:22:24;;;;;;;8.45;6.20;;;30.30;73.30;;;;;;4153842;28;20057;-68
2022/05/05 04:24:28;;;;;;;11.57;6.50;;;30.30;73.30;;;;;;3275814;28;10000918;-69
2022/05/05 04:26:34;;;;;;;11.30;6.05;;;30.40;72.70;;;;;;4155099;28;20757;-69
2022/05/05 04:28:43;;;;;;;9.18;6.20;;;30.40;72.50;;;;;;4148306;28;20085;-69
2022/05/05 04:30:47;;;;;;;8.10;6.45;;;30.40;71.50;;;;;;4143596;28;20046;-69
2022/05/05 04:32:54;;;;;;;11.63;6.45;;;30.40;71.30;;;;;;4143241;28;20073;-69
2022/05/05 04:35:01;;;;;;;12.02;6.28;;;30.40;71.20;;;;;;4142684;28;20056;-69
2022/05/05 04:37:06;;;;;;;10.30;6.53;;;30.40;71.70;;;;;;4149808;28;20046;-68
2022/05/05 04:39:12;;;;;;;9.98;6.25;;;30.40;71.80;;;;;;4116673;28;20471;-69
2022/05/05 04:41:18;;;;;;;10.30;6.20;;;30.50;72.60;;;;;;4148802;28;20596;-67
2022/05/05 04:43:24;;;;;;;12.35;6.28;;;30.50;71.80;;;;;;4154566;28;20053;-69
2022/05/05 04:45:31;;;;;;;8.18;6.75;;;30.60;73.10;;;;;;4148268;28;20046;-69
2022/05/05 04:47:36;;;;;;;8.27;6.38;;;30.60;71.80;;;;;;4157073;28;20069;-69
2022/05/05 04:49:41;;;;;;;13.30;7.15;;;30.60;70.70;;;;;;4155289;28;20549;-69
2022/05/05 04:51:48;;;;;;;9.10;6.03;;;30.60;72.60;;;;;;4151172;28;20050;-68
2022/05/05 04:53:55;;;;;;;10.50;6.47;;;30.70;72.60;;;;;;4155723;28;20042;-68
2022/05/05 04:55:59;;;;;;;10.80;6.53;;;30.80;73.20;;;;;;4152538;28;20113;-68
2022/05/05 04:58:04;;;;;;;9.30;6.10;;;30.80;72.90;;;;;;4155309;28;20041;-69
2022/05/05 05:00:14;;;;;;;7.72;6.45;;;30.90;73.30;;;;;;4168603;28;20056;-68
2022/05/05 05:02:18;;;;;;;11.13;6.38;;;31.00;74.20;;;;;;4154243;28;20034;-68
2022/05/05 05:04:23;;;;;;;9.45;6.15;;;31.00;74.30;;;;;;4155919;28;20049;-68
2022/05/05 05:06:30;;;;;;;10.48;6.68;;;31.10;73.80;;;;;;4153720;28;20060;-67
2022/05/05 05:08:34;;;;;;;9.73;7.25;;;31.10;73.70;;;;;;4155007;28;20060;-69
2022/05/05 05:10:43;;;;;;;10.38;7.10;;;31.10;71.20;;;;;;4156070;28;20496;-68
2022/05/05 05:12:53;;;;;;;13.57;7.97;;;31.10;71.60;;;;;;4154962;28;20049;-68
2022/05/05 05:14:58;;;;;;;12.02;7.15;;;31.10;71.80;;;;;;4156302;28;20050;-68
2022/05/05 05:17:04;;;;;;;10.95;7.35;;;31.30;72.80;;;;;;4173581;28;20476;-67
2022/05/05 05:19:10;;;;;;;10.63;7.22;;;31.30;71.40;;;;;;4169510;28;20045;-68
2022/05/05 05:21:23;;;;;;;9.27;7.30;;;31.30;71.00;;;;;;4162234;28;20045;-67
2022/05/05 05:23:29;;;;;;;14.60;7.68;;;31.30;72.40;;;;;;4158426;28;20049;-68
2022/05/05 05:25:35;;;;;;;10.52;6.90;;;31.30;71.60;;;;;;4152749;28;20056;-68
2022/05/05 05:27:41;;;;;;;10.00;7.20;;;31.40;70.60;;;;;;4156109;28;20070;-68
2022/05/05 05:30:08;;;;;;;10.27;7.35;;;31.40;72.80;;;;;;4135756;28;20054;-68
2022/05/05 05:32:15;;;;;;;10.23;7.13;;;31.50;70.90;;;;;;4133715;28;20589;-68
2022/05/05 05:34:19;;;;;;;10.60;7.47;;;31.60;70.00;;;;;;4136776;28;20078;-68
2022/05/05 05:36:24;;;;;;;11.60;7.78;;;31.50;71.30;;;;;;4136394;28;20046;-69
2022/05/05 05:38:30;;;;;;;9.82;7.47;;;31.50;68.80;;;;;;4137193;28;20058;-70
2022/05/05 05:40:35;;;;;;;13.55;7.18;;;31.50;70.30;;;;;;4118615;28;20066;-69
2022/05/05 05:42:40;;;;;;;12.15;8.15;;;31.50;69.80;;;;;;4138324;28;20046;-68
2022/05/05 05:44:46;;;;;;;10.25;7.60;;;31.50;70.20;;;;;;4137449;28;20397;-69
2022/05/05 05:46:51;;;;;;;9.60;7.55;;;31.50;69.70;;;;;;4137181;28;20061;-69
2022/05/05 05:48:59;;;;;;;11.23;7.80;;;31.50;70.30;;;;;;4135575;28;20077;-68
2022/05/05 05:51:11;;;;;;;11.32;7.70;;;31.60;70.80;;;;;;4136115;28;20055;-67
2022/05/05 05:53:15;;;;;;;8.85;7.25;;;31.60;70.90;;;;;;4139088;28;20062;-67
2022/05/05 05:55:22;;;;;;;10.00;7.70;;;31.70;70.40;;;;;;4139129;28;20575;-68
2022/05/05 05:57:29;;;;;;;10.93;7.88;;;31.70;70.20;;;;;;4137562;28;20061;-68
2022/05/05 05:59:33;;;;;;;10.95;7.88;;;31.70;69.80;;;;;;4137282;28;20050;-67
2022/05/05 06:03:57;;;;;;;11.90;7.70;;;31.80;71.00;;;;;;4137105;28;20047;-66
2022/05/05 06:06:02;;;;;;;11.30;7.68;;;31.80;71.10;;;;;;4139689;28;20050;-67
2022/05/05 06:08:09;;;;;;;12.57;8.00;;;32.00;71.70;;;;;;4150256;28;20077;-67
2022/05/05 06:10:19;;;;;;;14.07;8.05;;;32.10;71.40;;;;;;4158948;28;20050;-67
2022/05/05 06:12:24;;;;;;;10.30;7.72;;;32.20;70.90;;;;;;4168516;28;20050;-67
2022/05/05 06:14:31;;;;;;;10.63;7.38;;;32.30;70.90;;;;;;4160042;28;20432;-66
2022/05/05 06:16:38;;;;;;;11.65;7.65;;;32.30;70.60;;;;;;4159422;28;20046;-66
2022/05/05 06:18:42;;;;;;;8.95;7.20;;;32.30;70.40;;;;;;4159274;28;20040;-68
2022/05/05 06:20:49;;;;;;;10.88;7.60;;;32.30;69.20;;;;;;4158611;28;20125;-68
2022/05/05 06:22:55;;;;;;;11.00;7.63;;;32.20;68.30;;;;;;4153156;28;20072;-68
2022/05/05 06:25:01;;;;;;;9.63;7.25;;;32.20;69.10;;;;;;4159475;28;20430;-68
2022/05/05 06:27:08;;;;;;;8.95;7.25;;;32.20;69.20;;;;;;4158719;28;20053;-68
2022/05/05 06:29:14;;;;;;;10.25;6.97;;;32.20;69.60;;;;;;4153900;28;20050;-68
2022/05/05 06:31:19;;;;;;;10.18;7.35;;;32.30;70.40;;;;;;4155505;28;20037;-67
2022/05/05 06:33:24;;;;;;;10.38;6.88;;;32.50;70.90;;;;;;4161694;28;20116;-67
2022/05/05 06:35:34;;;;;;;9.93;6.60;;;32.50;71.20;;;;;;4159650;28;20041;-68
2022/05/05 06:37:39;;;;;;;11.23;7.53;;;32.60;70.90;;;;;;4155959;28;20577;-66
2022/05/05 06:39:46;;;;;;;10.75;7.30;;;32.70;70.80;;;;;;4160114;28;20096;-68
2022/05/05 06:41:55;;;;;;;9.73;7.45;;;32.70;70.80;;;;;;4154184;28;20045;-68
2022/05/05 06:44:02;;;;;;;11.90;6.95;;;32.80;70.30;;;;;;4155509;28;20045;-69
2022/05/05 06:46:10;;;;;;;9.20;6.90;;;32.90;70.20;;;;;;4120526;28;20081;-68
2022/05/05 06:48:16;;;;;;;10.63;7.30;;;32.90;70.60;;;;;;4161175;28;20127;-68
2022/05/05 06:50:23;;;;;;;9.90;6.80;;;32.90;71.10;;;;;;4154806;28;20131;-68
2022/05/05 06:52:30;;;;;;;9.48;6.80;;;33.00;70.80;;;;;;4153123;28;20050;-69
2022/05/05 06:54:43;;;;;;;11.15;7.43;;;33.10;70.00;;;;;;4156512;28;20046;-69
2022/05/05 06:56:47;;;;;;;7.90;6.65;;;33.20;69.90;;;;;;4156284;28;20725;-68
2022/05/05 06:58:55;;;;;;;9.98;7.13;;;33.20;69.00;;;;;;4122554;28;20038;-69
2022/05/05 07:03:21;;;;;;;8.95;6.65;;;33.10;67.90;;;;;;4158012;28;20093;-69
2022/05/05 07:05:29;;;;;;;10.23;6.78;;;33.00;67.70;;;;;;4159150;28;20073;-68
2022/05/05 07:07:36;;;;;;;11.20;6.68;;;33.00;67.60;;;;;;4159282;28;20099;-69
2022/05/05 07:12:01;;;;;;;10.63;6.57;;;33.00;67.70;;;;;;4157990;28;20117;-69
2022/05/05 07:14:06;;;;;;;9.02;6.68;;;33.10;68.00;;;;;;4159251;28;20061;-68
2022/05/05 07:16:11;;;;;;;12.77;7.25;;;33.10;67.70;;;;;;4158062;28;20057;-69
2022/05/05 07:18:18;;;;;;;12.30;6.55;;;33.00;67.20;;;;;;4158911;28;20490;-69
2022/05/05 07:20:24;;;;;;;15.20;7.20;;;33.00;67.20;;;;;;4157348;28;20116;-68
2022/05/05 07:22:29;;;;;;;7.43;6.00;;;33.00;66.70;;;;;;4157209;28;20096;-70
2022/05/05 07:24:36;;;;;;;8.77;6.90;;;33.00;66.60;;;;;;4157419;28;20050;-70
2022/05/05 07:26:43;;;;;;;8.85;6.13;;;33.00;66.60;;;;;;4159368;28;20045;-69
2022/05/05 07:28:47;;;;;;;8.93;6.18;;;32.90;67.80;;;;;;4159166;28;20038;-69
2022/05/05 07:30:54;;;;;;;9.57;6.13;;;33.00;67.90;;;;;;4158746;28;20085;-69
2022/05/05 07:33:01;;;;;;;9.73;5.88;;;33.00;67.90;;;;;;4158511;28;20077;-69
2022/05/05 07:35:06;;;;;;;7.85;5.95;;;33.00;66.90;;;;;;4153535;28;20578;-69
2022/05/05 07:37:13;;;;;;;8.63;5.80;;;33.00;67.60;;;;;;4171362;28;20056;-69
2022/05/05 07:39:20;;;;;;;9.15;5.95;;;33.10;67.60;;;;;;4157957;28;20038;-68
2022/05/05 07:41:24;;;;;;;6.53;5.30;;;33.10;66.90;;;;;;4155518;28;20101;-69
2022/05/05 07:43:31;;;;;;;7.72;5.82;;;33.10;66.30;;;;;;4155893;28;20038;-69
2022/05/05 07:45:38;;;;;;;7.10;5.60;;;33.10;66.30;;;;;;4155708;28;20042;-69
2022/05/05 07:47:43;;;;;;;7.45;5.63;;;33.20;67.00;;;;;;4156689;28;20054;-69
2022/05/05 07:49:49;;;;;;;7.88;5.38;;;33.20;66.80;;;;;;4173855;28;20046;-69
2022/05/05 07:51:58;;;;;;;9.65;5.35;;;33.20;66.30;;;;;;4155427;28;20093;-70
2022/05/05 07:56:22;;;;;;;11.05;5.55;;;33.40;67.60;;;;;;4155525;28;20522;-69
2022/05/05 07:58:28;;;;;;;11.25;5.78;;;33.40;66.90;;;;;;4158031;28;20034;-70
2022/05/05 08:00:33;;;;;;;8.52;6.00;;;33.40;66.10;;;;;;4158627;28;20065;-68
2022/05/05 08:02:39;;;;;;;8.77;5.45;;;33.40;65.50;;;;;;4156438;28;20522;-68
2022/05/05 08:04:45;;;;;;;7.65;5.50;;;33.40;66.10;;;;;;4155844;28;20050;-69
2022/05/05 08:06:50;;;;;;;6.78;5.05;;;33.40;66.60;;;;;;4154458;28;20104;-69
2022/05/05 08:08:56;;;;;;;10.57;6.32;;;33.30;65.70;;;;;;4155382;28;20117;-69
2022/05/05 08:11:03;;;;;;;9.23;5.95;;;33.30;66.30;;;;;;4171496;28;20248;-68
2022/05/05 08:13:08;;;;;;;11.02;5.85;;;33.20;66.90;;;;;;4157879;28;20092;-68
2022/05/05 08:15:16;;;;;;;7.03;5.72;;;33.10;67.00;;;;;;4158201;28;20046;-68
2022/05/05 08:17:20;;;;;;;10.70;6.15;;;33.10;66.90;;;;;;4155951;28;20085;-68
2022/05/05 08:19:25;;;;;;;8.07;5.95;;;33.10;67.00;;;;;;4156528;28;20072;-69
2022/05/05 08:21:30;;;;;;;7.95;6.13;;;33.10;66.80;;;;;;4157762;28;20046;-68
2022/05/05 08:23:38;;;;;;;6.68;5.85;;;33.00;66.90;;;;;;4157801;28;20076;-67
2022/05/05 08:30:20;;;;;;;9.25;5.90;;;32.90;66.40;;;;;;4155471;28;20038;-69
2022/05/05 08:32:25;;;;;;;11.07;6.38;;;33.00;66.50;;;;;;4154194;28;20045;-69
2022/05/05 08:34:30;;;;;;;8.30;5.75;;;33.00;66.80;;;;;;4152801;28;20073;-69
2022/05/05 08:36:37;;;;;;;7.78;5.82;;;33.00;66.70;;;;;;4152754;28;20080;-69
2022/05/05 08:38:44;;;;;;;8.75;5.55;;;33.00;66.10;;;;;;4155239;28;20034;-69
2022/05/05 08:40:48;;;;;;;10.10;5.65;;;33.00;66.40;;;;;;4154911;28;20088;-70
2022/05/05 08:42:57;;;;;;;8.30;5.65;;;32.90;66.30;;;;;;4154848;28;20077;-70
2022/05/05 08:45:09;;;;;;;9.52;5.82;;;32.90;66.00;;;;;;4167513;28;20079;-70
2022/05/05 08:47:14;;;;;;;8.63;7.10;;;33.00;66.30;;;;;;4153107;28;20130;-70
2022/05/05 08:49:23;;;;;;;10.32;6.15;;;33.10;66.30;;;;;;4154119;28;20057;-69
2022/05/05 08:51:28;;;;;;;8.63;6.15;;;33.10;66.20;;;;;;4152011;28;20465;-69
2022/05/05 08:53:36;;;;;;;10.45;5.50;;;33.10;66.80;;;;;;4153035;28;20041;-70
2022/05/05 08:55:43;;;;;;;6.57;5.45;;;33.10;67.30;;;;;;4168167;28;20045;-70
2022/05/05 08:57:48;;;;;;;6.82;5.35;;;33.10;67.20;;;;;;4153409;28;20042;-69
2022/05/05 08:59:55;;;;;;;6.60;5.00;;;33.10;66.70;;;;;;4153148;28;20053;-70
2022/05/05 09:02:01;;;;;;;7.25;5.60;;;33.10;66.40;;;;;;4167201;28;20049;-70
2022/05/05 09:04:09;;;;;;;7.18;5.03;;;33.10;65.70;;;;;;4152412;28;20049;-70
2022/05/05 09:06:14;;;;;;;7.25;5.07;;;33.00;66.60;;;;;;4149821;28;20093;-68
2022/05/05 09:08:33;;;;;;;10.65;5.88;;;32.90;66.20;;;;;;4152581;28;20738;-68
2022/05/05 09:10:44;;;;;;;5.95;5.35;;;32.90;66.50;;;;;;4152457;28;20054;-68
2022/05/05 09:12:59;;;;;;;7.55;5.32;;;32.80;67.20;;;;;;4153381;28;20061;-68
2022/05/05 09:15:10;;;;;;;9.00;5.18;;;32.70;67.70;;;;;;4150838;28;20076;-69
2022/05/05 09:17:20;;;;;;;8.10;5.90;;;32.70;68.00;;;;;;4153923;28;20048;-69
2022/05/05 09:19:24;;;;;;;6.93;5.45;;;32.80;68.30;;;;;;4152628;28;20065;-70
2022/05/05 09:21:34;;;;;;;8.57;6.22;;;32.80;67.80;;;;;;4151078;28;20590;-69
2022/05/05 09:25:56;;;;;;;10.48;5.75;;;32.70;67.50;;;;;;4150326;28;20056;-69
2022/05/05 09:28:19;;;;;;;10.48;6.00;;;32.70;67.80;;;;;;4148932;28;20057;-69
2022/05/05 09:30:24;;;;;;;10.27;5.82;;;32.70;67.60;;;;;;4146476;28;20050;-68
2022/05/05 09:32:29;;;;;;;7.28;5.72;;;32.70;67.80;;;;;;4149840;28;20053;-68
2022/05/05 09:34:36;;;;;;;9.98;5.80;;;32.70;67.70;;;;;;4148750;28;20049;-69
2022/05/05 09:36:42;;;;;;;12.38;6.25;;;32.70;67.90;;;;;;4153722;28;20069;-68
2022/05/05 09:39:04;;;;;;;10.38;6.15;;;32.70;68.00;;;;;;4149870;28;20156;-68
2022/05/05 09:41:28;;;;;;;7.75;5.35;;;32.60;67.90;;;;;;4149878;28;20056;-68
2022/05/05 09:43:47;;;;;;;9.60;5.93;;;32.60;66.90;;;;;;4147515;28;20046;-69
2022/05/05 09:46:34;;;;;;;7.85;5.88;;;32.50;67.80;;;;;;4148439;28;20117;-69
2022/05/05 09:49:12;;;;;;;9.63;6.00;;;32.50;68.20;;;;;;4148855;28;20374;-70
2022/05/05 09:51:21;;;;;;;12.30;6.25;;;32.50;69.00;;;;;;4151617;28;20045;-70
2022/05/05 09:58:08;;;;;;;9.75;7.35;;;32.60;70.40;;;;;;4150006;28;20046;-68
2022/05/05 10:04:50;;;;;;;10.00;5.60;;;32.60;70.40;;;;;;4148132;28;20484;-71
2022/05/05 10:06:55;;;;;;;8.63;5.82;;;32.70;69.00;;;;;;4166183;28;20456;-70
2022/05/05 10:09:17;;;;;;;7.45;5.43;;;32.70;69.50;;;;;;4151350;28;20061;-70
2022/05/05 10:11:22;;;;;;;10.20;5.80;;;32.70;68.80;;;;;;4152688;28;20046;-70
2022/05/05 10:13:28;;;;;;;11.27;5.63;;;32.60;69.40;;;;;;4152475;28;20046;-70
2022/05/05 10:15:34;;;;;;;9.85;5.82;;;32.70;69.40;;;;;;4151643;28;20056;-69
2022/05/05 10:18:03;;;;;;;10.65;5.78;;;32.60;69.40;;;;;;4151624;28;20049;-70
2022/05/05 10:20:10;;;;;;;9.10;5.95;;;32.60;70.00;;;;;;4150247;28;20042;-70
2022/05/05 10:22:20;;;;;;;9.60;5.55;;;32.60;70.30;;;;;;4151815;28;20069;-70
2022/05/05 10:24:32;;;;;;;10.10;5.47;;;32.50;70.30;;;;;;4150424;28;20042;-70
2022/05/05 10:26:37;;;;;;;7.95;5.95;;;32.40;70.30;;;;;;4151563;28;20489;-70
2022/05/05 10:28:47;;;;;;;10.32;5.97;;;32.30;70.80;;;;;;4151851;28;20053;-70
2022/05/05 10:30:52;;;;;;;9.20;5.47;;;32.30;71.20;;;;;;4150749;28;20116;-70
2022/05/05 10:32:57;;;;;;;13.02;5.97;;;32.30;71.30;;;;;;4152816;28;20048;-70
2022/05/05 10:35:24;;;;;;;48.20;11.80;;;32.30;71.20;;;;;;4152236;28;20077;-70
2022/05/05 10:37:34;;;;;;;24.60;9.77;;;32.30;71.00;;;;;;4152319;28;20098;-70
2022/05/05 10:39:47;;;;;;;19.00;8.30;;;32.20;70.40;;;;;;4152704;28;20053;-69
2022/05/05 10:42:16;;;;;;;16.92;7.20;;;32.10;71.20;;;;;;4153595;28;20062;-69
2022/05/05 10:44:22;;;;;;;13.77;7.05;;;32.10;71.30;;;;;;4152706;28;20042;-69
2022/05/05 10:46:52;;;;;;;13.15;6.72;;;32.10;71.60;;;;;;4152675;28;20046;-68
2022/05/05 10:49:19;;;;;;;48.88;9.98;;;32.10;71.80;;;;;;4150253;28;20086;-69
2022/05/05 10:51:24;;;;;;;42.65;9.52;;;32.00;72.50;;;;;;4153441;28;20134;-68
2022/05/05 10:53:40;;;;;;;56.90;10.32;;;32.00;72.40;;;;;;4152558;28;20462;-69
2022/05/05 10:55:49;;;;;;;43.35;9.27;;;31.90;72.80;;;;;;4150200;28;20120;-68
2022/05/05 10:58:01;;;;;;;30.80;8.40;;;31.90;73.10;;;;;;4151915;28;20057;-68
2022/05/05 11:00:20;;;;;;;32.45;8.52;;;31.90;73.40;;;;;;4153771;28;20114;-70
2022/05/05 11:02:25;;;;;;;28.67;7.55;;;31.80;73.70;;;;;;4154635;28;20046;-68
2022/05/05 11:04:50;;;;;;;21.60;7.40;;;31.80;74.10;;;;;;4155127;28;20046;-69
2022/05/05 11:07:20;;;;;;;21.67;7.03;;;31.80;74.90;;;;;;4154674;28;20042;-69
2022/05/05 11:09:33;;;;;;;16.88;8.35;;;31.70;76.00;;;;;;4157088;28;20049;-68
2022/05/05 11:11:41;;;;;;;23.88;9.55;;;31.60;76.60;;;;;;4157091;28;20046;-67
2022/05/05 11:13:47;;;;;;;22.77;9.07;;;31.60;77.20;;;;;;4173423;28;20130;-69
2022/05/05 11:22:53;;;;;;;10.80;6.90;;;31.30;78.10;;;;;;4153703;28;20034;-68
2022/05/05 11:25:01;;;;;;;10.93;6.50;;;31.30;78.20;;;;;;4153224;28;20065;-69
2022/05/05 11:27:10;;;;;;;8.23;6.22;;;31.30;78.40;;;;;;4153806;28;20081;-69
2022/05/05 11:29:18;;;;;;;9.43;6.80;;;31.20;78.50;;;;;;4151812;28;20054;-70
2022/05/05 11:31:28;;;;;;;14.80;6.80;;;31.20;78.40;;;;;;4169725;28;20056;-69
2022/05/05 11:33:35;;;;;;;9.75;6.20;;;31.10;78.40;;;;;;4154140;28;20133;-69
2022/05/05 11:35:55;;;;;;;13.80;6.47;;;31.10;78.20;;;;;;4153651;28;20034;-68
2022/05/05 11:38:00;;;;;;;9.77;6.47;;;31.10;78.50;;;;;;4152184;28;20760;-69
2022/05/05 11:40:06;;;;;;;13.82;7.05;;;31.00;78.90;;;;;;4150186;28;20100;-69
2022/05/05 11:42:12;;;;;;;11.20;7.10;;;31.00;79.30;;;;;;4149147;28;20057;-68
2022/05/05 11:44:18;;;;;;;14.60;7.65;;;31.00;79.50;;;;;;4148549;28;20356;-68